This is the latest recevied weather packets stored in our database for station/object LTAC. If no packets are shown the sender has not sent any weather packets the latest 10 day(s).
| Time | Temp. | Humidity | Pressure | Rain* | Wind** | Luminosity | Snow |
|---|---|---|---|---|---|---|---|
| 1777658404 | 7.22° C | 81% | 1014 hPa | - | - | - | - |
| 1777654804 | 7.78° C | 70% | 1014 hPa | - | - | - | - |
| 1777653904 | 7.78° C | 81% | 1014 hPa | - | - | - | - |
| 1777653004 | 7.78° C | 81% | 1014 hPa | - | - | - | - |
| 1777650303 | 7.22° C | 87% | 1013 hPa | - | - | - | - |
| 1777646703 | 7.78° C | 87% | 1013 hPa | - | - | - | - |
| 1777645804 | 7.78° C | 87% | 1013 hPa | - | - | - | - |
| 1777644904 | 8.89° C | 81% | 1013 hPa | - | - | - | - |
| 1777643103 | 8.89° C | 81% | 1013 hPa | - | - | - | - |
| 1777642205 | 8.89° C | 81% | 1013 hPa | - | - | - | - |
| 1777640404 | 10° C | 76% | 1013 hPa | - | - | - | - |
| 1777636804 | 12.22° C | 71% | 1012 hPa | - | - | - | - |
| 1777635904 | 12.78° C | 71% | 1012 hPa | - | - | - | - |
| 1777634104 | 13.89° C | 62% | 1012 hPa | - | - | - | - |
| 1777629604 | 13.89° C | 58% | 1012 hPa | - | - | - | - |
| 1777627804 | 15° C | 54% | 1012 hPa | - | - | - | - |
| 1777626003 | 15° C | 58% | 1012 hPa | - | - | - | - |
| 1777624205 | 15° C | 54% | 1012 hPa | - | - | - | - |
| 1777623304 | 15° C | 54% | 1012 hPa | - | - | - | - |
| 1777622404 | 15° C | 54% | 1012 hPa | - | - | - | - |
| 1777621503 | 15° C | 51% | 1012 hPa | - | - | - | - |
| 1777620605 | 15° C | 51% | 1012 hPa | - | - | - | - |
| 1777619704 | 13.89° C | 50% | 1011 hPa | - | - | - | - |
| 1777618804 | 13.89° C | 50% | 1011 hPa | - | - | - | - |
| 1777617904 | 12.78° C | 58% | 1011 hPa | - | - | - | - |
* Rain since midnight (hover to see other rain measurements)
** Current wind speed in m/s (hover to see current wind gust speed)